Date,TemperatureHighF,TemperatureAvgF,TemperatureLowF,DewpointHighF,DewpointAvgF,DewpointLowF,HumidityHigh,HumidityAvg,HumidityLow,PressureMaxIn,PressureMinIn,WindSpeedMaxMPH,WindSpeedAvgMPH,GustSpeedMaxMPH,PrecipitationSumIn
2013-1-8,50.9,39.0,30.4,34.0,30.5,28.0,92,74,51,30.25,30.22,7,1,9,0.00
2013-1-9,54.9,41.4,31.2,46.0,38.1,29.0,97,88,68,30.51,30.23,8,1,11,0.00
2013-1-10,53.0,42.0,31.0,51.0,39.3,30.0,97,90,68,30.51,30.01,8,2,11,0.32
2013-1-11,62.7,56.0,48.9,55.0,51.5,45.0,97,85,67,30.01,29.87,14,4,19,0.71
2013-1-12,66.0,60.6,46.5,63.0,57.7,44.0,97,90,84,29.98,29.69,13,4,23,0.16
2013-1-13,66.6,42.0,27.3,62.0,40.6,25.0,97,94,86,30.23,29.65,19,3,23,1.88
2013-1-14,28.5,24.9,21.6,24.0,21.0,19.0,89,85,76,30.47,30.25,8,2,12,0.00
2013-1-15,33.8,26.9,20.2,26.0,22.3,18.0,92,83,71,30.39,30.11,10,3,17,0.00
2013-1-16,35.4,31.9,29.8,27.0,26.0,24.0,86,79,63,30.14,30.03,7,1,8,0.00
2013-1-17,48.3,33.9,26.3,36.0,26.7,21.0,94,76,49,30.45,30.12,8,2,17,0.00
2013-1-18,44.5,31.6,17.2,27.0,22.0,15.0,94,70,42,30.55,30.26,9,3,15,0.00
2013-1-19,55.6,47.0,39.7,35.0,29.1,24.0,64,51,40,30.26,29.95,15,7,28,0.00
2013-1-20,45.9,35.8,24.8,37.0,18.6,10.0,73,51,32,30.28,30.01,8,2,19,0.00
2013-1-21,27.1,21.5,12.8,18.0,9.6,1.0,81,61,40,30.34,30.18,12,3,20,0.00
2013-1-22,20.0,13.7,7.6,6.0,0.7,-2.0,72,57,43,30.47,30.34,9,2,13,0.00
2013-1-23,35.9,22.6,9.2,21.0,11.7,4.0,84,65,43,30.43,30.14,10,2,13,0.00
2013-1-24,30.6,24.2,17.0,20.0,7.3,-1.0,78,51,29,30.61,30.20,12,3,20,0.00
2013-1-25,29.6,23.6,19.1,23.0,15.7,4.0,90,74,44,30.38,30.11,7,1,10,0.00
2013-1-26,40.5,25.9,13.7,23.0,17.5,11.0,93,73,43,30.43,30.19,7,1,10,0.00
2013-1-27,43.3,32.1,20.5,42.0,26.5,16.0,95,80,60,30.43,30.12,7,2,11,0.21
2013-1-28,56.3,52.0,43.8,55.0,49.1,42.0,96,90,73,30.14,30.02,19,6,25,0.19
2013-1-29,66.8,60.1,54.8,60.0,56.0,52.0,90,86,80,30.03,29.46,17,7,29,0.00
2013-1-30,68.2,48.5,29.6,62.0,44.8,24.0,97,87,76,29.71,29.30,19,6,37,1.49
2013-1-31,32.6,26.9,13.6,27.0,19.9,7.0,93,75,61,30.21,29.74,19,6,25,0.00